sensor_id;sensor_type;location;lat;lon;timestamp;temperature;humidity
4908;DHT22;64375;51.540;7.364;2023-12-29T00:01:35;17.10;98.50
4908;DHT22;64375;51.540;7.364;2023-12-29T00:04:24;17.00;98.20
4908;DHT22;64375;51.540;7.364;2023-12-29T00:06:55;17.00;98.30
4908;DHT22;64375;51.540;7.364;2023-12-29T00:09:29;17.00;98.10
4908;DHT22;64375;51.540;7.364;2023-12-29T00:11:58;17.10;98.30
4908;DHT22;64375;51.540;7.364;2023-12-29T00:14:26;17.10;98.20
4908;DHT22;64375;51.540;7.364;2023-12-29T00:17:17;17.10;98.00
4908;DHT22;64375;51.540;7.364;2023-12-29T00:19:45;17.00;97.90
4908;DHT22;64375;51.540;7.364;2023-12-29T00:22:13;17.00;98.30
4908;DHT22;64375;51.540;7.364;2023-12-29T00:24:50;17.10;98.30
4908;DHT22;64375;51.540;7.364;2023-12-29T00:27:25;17.10;98.20
4908;DHT22;64375;51.540;7.364;2023-12-29T00:29:53;17.10;98.20
4908;DHT22;64375;51.540;7.364;2023-12-29T00:32:21;17.00;98.30
4908;DHT22;64375;51.540;7.364;2023-12-29T00:34:52;17.00;98.20
4908;DHT22;64375;51.540;7.364;2023-12-29T00:37:26;17.00;98.20
4908;DHT22;64375;51.540;7.364;2023-12-29T00:40:00;16.90;98.40
4908;DHT22;64375;51.540;7.364;2023-12-29T00:42:29;16.90;98.40
4908;DHT22;64375;51.540;7.364;2023-12-29T00:44:57;17.00;98.60
4908;DHT22;64375;51.540;7.364;2023-12-29T00:47:31;17.00;98.40
4908;DHT22;64375;51.540;7.364;2023-12-29T00:50:05;17.00;98.40
4908;DHT22;64375;51.540;7.364;2023-12-29T00:52:34;17.00;98.50
4908;DHT22;64375;51.540;7.364;2023-12-29T00:55:03;17.00;98.40
4908;DHT22;64375;51.540;7.364;2023-12-29T00:57:33;17.00;98.50
4908;DHT22;64375;51.540;7.364;2023-12-29T01:00:01;17.00;98.40
4908;DHT22;64375;51.540;7.364;2023-12-29T01:02:35;17.00;98.40
4908;DHT22;64375;51.540;7.364;2023-12-29T01:05:04;17.00;98.50
4908;DHT22;64375;51.540;7.364;2023-12-29T01:07:32;17.00;98.40
4908;DHT22;64375;51.540;7.364;2023-12-29T01:10:09;17.00;98.50
4908;DHT22;64375;51.540;7.364;2023-12-29T01:12:51;17.00;98.50
4908;DHT22;64375;51.540;7.364;2023-12-29T01:15:22;17.00;98.40
4908;DHT22;64375;51.540;7.364;2023-12-29T01:17:53;16.90;98.50
4908;DHT22;64375;51.540;7.364;2023-12-29T01:20:28;17.00;98.50
4908;DHT22;64375;51.540;7.364;2023-12-29T01:22:56;17.00;98.40
4908;DHT22;64375;51.540;7.364;2023-12-29T01:25:41;17.00;98.40
4908;DHT22;64375;51.540;7.364;2023-12-29T01:28:13;16.90;98.30
4908;DHT22;64375;51.540;7.364;2023-12-29T01:30:41;17.00;98.30
4908;DHT22;64375;51.540;7.364;2023-12-29T01:33:18;17.00;98.30
4908;DHT22;64375;51.540;7.364;2023-12-29T01:35:48;17.00;98.30
4908;DHT22;64375;51.540;7.364;2023-12-29T01:38:22;16.90;98.50
4908;DHT22;64375;51.540;7.364;2023-12-29T01:40:50;17.00;98.30
4908;DHT22;64375;51.540;7.364;2023-12-29T01:43:22;17.00;98.40
4908;DHT22;64375;51.540;7.364;2023-12-29T01:45:49;17.00;98.20
4908;DHT22;64375;51.540;7.364;2023-12-29T01:48:24;17.00;98.10
4908;DHT22;64375;51.540;7.364;2023-12-29T01:50:55;17.00;98.30
4908;DHT22;64375;51.540;7.364;2023-12-29T01:53:26;17.00;98.30
4908;DHT22;64375;51.540;7.364;2023-12-29T01:56:08;17.10;98.30
4908;DHT22;64375;51.540;7.364;2023-12-29T01:58:43;17.10;98.20
4908;DHT22;64375;51.540;7.364;2023-12-29T02:01:11;17.00;98.30
4908;DHT22;64375;51.540;7.364;2023-12-29T02:03:40;17.00;98.20
4908;DHT22;64375;51.540;7.364;2023-12-29T02:06:13;17.10;98.30
4908;DHT22;64375;51.540;7.364;2023-12-29T02:09:06;17.10;98.30
4908;DHT22;64375;51.540;7.364;2023-12-29T02:11:35;17.00;98.40
4908;DHT22;64375;51.540;7.364;2023-12-29T02:14:04;17.00;98.50
4908;DHT22;64375;51.540;7.364;2023-12-29T02:16:37;17.10;98.70
4908;DHT22;64375;51.540;7.364;2023-12-29T02:19:23;17.10;98.70
4908;DHT22;64375;51.540;7.364;2023-12-29T02:22:08;17.10;98.70
4908;DHT22;64375;51.540;7.364;2023-12-29T02:24:37;17.00;98.70
4908;DHT22;64375;51.540;7.364;2023-12-29T02:27:34;17.00;98.90
4908;DHT22;64375;51.540;7.364;2023-12-29T02:30:17;17.10;99.00
4908;DHT22;64375;51.540;7.364;2023-12-29T02:32:46;17.10;98.80
4908;DHT22;64375;51.540;7.364;2023-12-29T02:35:23;17.00;99.00
4908;DHT22;64375;51.540;7.364;2023-12-29T02:37:58;17.10;99.00
4908;DHT22;64375;51.540;7.364;2023-12-29T02:40:27;17.10;99.00
4908;DHT22;64375;51.540;7.364;2023-12-29T02:43:17;17.10;99.10
4908;DHT22;64375;51.540;7.364;2023-12-29T02:45:48;17.10;99.00
4908;DHT22;64375;51.540;7.364;2023-12-29T02:48:21;17.00;99.20
4908;DHT22;64375;51.540;7.364;2023-12-29T02:50:52;17.10;99.30
4908;DHT22;64375;51.540;7.364;2023-12-29T02:53:23;17.10;99.40
4908;DHT22;64375;51.540;7.364;2023-12-29T02:55:51;17.00;99.10
4908;DHT22;64375;51.540;7.364;2023-12-29T02:58:29;17.00;99.20
4908;DHT22;64375;51.540;7.364;2023-12-29T03:03:44;17.00;99.50
4908;DHT22;64375;51.540;7.364;2023-12-29T03:06:18;16.90;99.60
4908;DHT22;64375;51.540;7.364;2023-12-29T03:08:49;16.90;99.60
4908;DHT22;64375;51.540;7.364;2023-12-29T03:11:19;16.90;99.70
4908;DHT22;64375;51.540;7.364;2023-12-29T03:14:09;17.00;99.80
4908;DHT22;64375;51.540;7.364;2023-12-29T03:16:39;17.00;99.60
4908;DHT22;64375;51.540;7.364;2023-12-29T03:19:13;17.00;99.60
4908;DHT22;64375;51.540;7.364;2023-12-29T03:21:41;17.00;99.50
4908;DHT22;64375;51.540;7.364;2023-12-29T03:24:12;17.10;99.60
4908;DHT22;64375;51.540;7.364;2023-12-29T03:26:46;17.10;99.60
4908;DHT22;64375;51.540;7.364;2023-12-29T03:29:32;17.10;99.50
4908;DHT22;64375;51.540;7.364;2023-12-29T03:32:00;17.00;99.70
4908;DHT22;64375;51.540;7.364;2023-12-29T03:34:31;17.00;99.70
4908;DHT22;64375;51.540;7.364;2023-12-29T03:36:59;17.10;99.90
4908;DHT22;64375;51.540;7.364;2023-12-29T03:39:30;17.00;99.70
4908;DHT22;64375;51.540;7.364;2023-12-29T03:42:02;17.00;99.70
4908;DHT22;64375;51.540;7.364;2023-12-29T03:44:32;16.90;99.80
4908;DHT22;64375;51.540;7.364;2023-12-29T03:47:12;17.00;99.90
4908;DHT22;64375;51.540;7.364;2023-12-29T03:49:42;17.00;99.90
4908;DHT22;64375;51.540;7.364;2023-12-29T03:52:19;17.00;99.80
4908;DHT22;64375;51.540;7.364;2023-12-29T03:54:47;17.00;99.80
4908;DHT22;64375;51.540;7.364;2023-12-29T03:57:15;17.00;99.80
4908;DHT22;64375;51.540;7.364;2023-12-29T03:59:44;17.00;99.80
4908;DHT22;64375;51.540;7.364;2023-12-29T04:02:19;17.00;99.80
4908;DHT22;64375;51.540;7.364;2023-12-29T04:04:46;17.00;99.70
4908;DHT22;64375;51.540;7.364;2023-12-29T04:07:18;16.90;99.80
4908;DHT22;64375;51.540;7.364;2023-12-29T04:09:45;17.00;99.80
4908;DHT22;64375;51.540;7.364;2023-12-29T04:12:16;17.00;99.70
4908;DHT22;64375;51.540;7.364;2023-12-29T04:14:46;17.00;99.80
4908;DHT22;64375;51.540;7.364;2023-12-29T04:17:20;16.90;99.70
4908;DHT22;64375;51.540;7.364;2023-12-29T04:19:48;16.90;99.70
4908;DHT22;64375;51.540;7.364;2023-12-29T04:22:16;17.00;99.90
4908;DHT22;64375;51.540;7.364;2023-12-29T04:24:44;16.90;99.90
4908;DHT22;64375;51.540;7.364;2023-12-29T04:27:12;16.90;99.90
4908;DHT22;64375;51.540;7.364;2023-12-29T04:29:40;16.90;99.80
4908;DHT22;64375;51.540;7.364;2023-12-29T04:32:12;17.00;99.90
4908;DHT22;64375;51.540;7.364;2023-12-29T04:34:45;16.90;99.90
4908;DHT22;64375;51.540;7.364;2023-12-29T04:37:22;16.90;99.90
4908;DHT22;64375;51.540;7.364;2023-12-29T04:39:50;16.90;99.90
4908;DHT22;64375;51.540;7.364;2023-12-29T04:42:21;16.90;99.90
4908;DHT22;64375;51.540;7.364;2023-12-29T04:44:54;17.00;99.90
4908;DHT22;64375;51.540;7.364;2023-12-29T04:47:31;17.00;99.80
4908;DHT22;64375;51.540;7.364;2023-12-29T04:49:59;16.90;99.80
4908;DHT22;64375;51.540;7.364;2023-12-29T04:52:33;16.90;99.90
4908;DHT22;64375;51.540;7.364;2023-12-29T04:55:01;16.90;99.90
4908;DHT22;64375;51.540;7.364;2023-12-29T04:57:29;16.90;99.90
4908;DHT22;64375;51.540;7.364;2023-12-29T04:59:57;16.90;99.90
4908;DHT22;64375;51.540;7.364;2023-12-29T05:02:26;16.90;99.90
4908;DHT22;64375;51.540;7.364;2023-12-29T05:04:55;16.80;99.90
4908;DHT22;64375;51.540;7.364;2023-12-29T05:07:24;16.80;99.90
4908;DHT22;64375;51.540;7.364;2023-12-29T05:09:52;16.90;99.90
4908;DHT22;64375;51.540;7.364;2023-12-29T05:12:20;16.90;99.90
4908;DHT22;64375;51.540;7.364;2023-12-29T05:14:48;16.80;99.90
4908;DHT22;64375;51.540;7.364;2023-12-29T05:17:19;16.90;99.90
4908;DHT22;64375;51.540;7.364;2023-12-29T05:19:47;16.90;99.90
4908;DHT22;64375;51.540;7.364;2023-12-29T05:22:20;16.90;99.90
4908;DHT22;64375;51.540;7.364;2023-12-29T05:24:50;17.00;99.80
4908;DHT22;64375;51.540;7.364;2023-12-29T05:27:25;17.00;99.90
4908;DHT22;64375;51.540;7.364;2023-12-29T05:29:53;17.00;99.90
4908;DHT22;64375;51.540;7.364;2023-12-29T05:32:20;17.10;99.90
4908;DHT22;64375;51.540;7.364;2023-12-29T05:34:51;17.10;99.80
4908;DHT22;64375;51.540;7.364;2023-12-29T05:37:24;17.10;99.70
4908;DHT22;64375;51.540;7.364;2023-12-29T05:39:57;17.30;99.40
4908;DHT22;64375;51.540;7.364;2023-12-29T05:42:29;17.30;99.40
4908;DHT22;64375;51.540;7.364;2023-12-29T05:45:00;17.20;99.40
4908;DHT22;64375;51.540;7.364;2023-12-29T05:47:29;17.30;99.40
4908;DHT22;64375;51.540;7.364;2023-12-29T05:50:05;17.30;99.40
4908;DHT22;64375;51.540;7.364;2023-12-29T05:52:37;17.30;99.30
4908;DHT22;64375;51.540;7.364;2023-12-29T05:55:14;17.20;99.30
4908;DHT22;64375;51.540;7.364;2023-12-29T05:57:49;17.30;99.50
4908;DHT22;64375;51.540;7.364;2023-12-29T06:00:26;17.30;99.40
4908;DHT22;64375;51.540;7.364;2023-12-29T06:02:54;17.30;99.30
4908;DHT22;64375;51.540;7.364;2023-12-29T06:05:28;17.30;99.30
4908;DHT22;64375;51.540;7.364;2023-12-29T06:08:01;17.30;99.10
4908;DHT22;64375;51.540;7.364;2023-12-29T06:10:32;17.30;99.20
4908;DHT22;64375;51.540;7.364;2023-12-29T06:13:02;17.20;99.20
4908;DHT22;64375;51.540;7.364;2023-12-29T06:15:39;17.30;99.40
4908;DHT22;64375;51.540;7.364;2023-12-29T06:18:16;17.30;99.30
4908;DHT22;64375;51.540;7.364;2023-12-29T06:20:44;17.30;99.20
4908;DHT22;64375;51.540;7.364;2023-12-29T06:23:21;17.20;99.20
4908;DHT22;64375;51.540;7.364;2023-12-29T06:25:49;17.30;99.20
4908;DHT22;64375;51.540;7.364;2023-12-29T06:28:17;17.30;99.20
4908;DHT22;64375;51.540;7.364;2023-12-29T06:30:48;17.30;99.20
4908;DHT22;64375;51.540;7.364;2023-12-29T06:33:28;17.40;99.20
4908;DHT22;64375;51.540;7.364;2023-12-29T06:36:02;17.30;99.10
4908;DHT22;64375;51.540;7.364;2023-12-29T06:38:40;17.30;99.20
4908;DHT22;64375;51.540;7.364;2023-12-29T06:41:11;17.30;99.10
4908;DHT22;64375;51.540;7.364;2023-12-29T06:43:39;17.30;98.80
4908;DHT22;64375;51.540;7.364;2023-12-29T06:46:13;17.20;99.00
4908;DHT22;64375;51.540;7.364;2023-12-29T06:48:44;17.20;99.10
4908;DHT22;64375;51.540;7.364;2023-12-29T06:51:17;17.30;99.00
4908;DHT22;64375;51.540;7.364;2023-12-29T06:53:54;17.20;98.80
4908;DHT22;64375;51.540;7.364;2023-12-29T06:56:28;17.30;98.70
4908;DHT22;64375;51.540;7.364;2023-12-29T06:58:56;17.30;98.70
4908;DHT22;64375;51.540;7.364;2023-12-29T07:01:27;17.40;98.70
4908;DHT22;64375;51.540;7.364;2023-12-29T07:03:58;17.50;98.60
4908;DHT22;64375;51.540;7.364;2023-12-29T07:06:26;17.40;98.70
4908;DHT22;64375;51.540;7.364;2023-12-29T07:08:55;17.50;98.50
4908;DHT22;64375;51.540;7.364;2023-12-29T07:11:28;16.80;97.30
4908;DHT22;64375;51.540;7.364;2023-12-29T07:13:56;17.00;97.20
4908;DHT22;64375;51.540;7.364;2023-12-29T07:16:24;17.30;97.60
4908;DHT22;64375;51.540;7.364;2023-12-29T07:18:57;17.40;97.60
4908;DHT22;64375;51.540;7.364;2023-12-29T07:21:25;17.50;98.00
4908;DHT22;64375;51.540;7.364;2023-12-29T07:23:58;17.60;97.90
4908;DHT22;64375;51.540;7.364;2023-12-29T07:26:32;17.60;98.00
4908;DHT22;64375;51.540;7.364;2023-12-29T07:29:06;17.60;98.30
4908;DHT22;64375;51.540;7.364;2023-12-29T07:31:38;17.60;98.30
4908;DHT22;64375;51.540;7.364;2023-12-29T07:34:08;17.60;98.40
4908;DHT22;64375;51.540;7.364;2023-12-29T07:36:38;17.70;98.50
4908;DHT22;64375;51.540;7.364;2023-12-29T07:39:10;17.70;98.50
4908;DHT22;64375;51.540;7.364;2023-12-29T07:41:46;17.70;98.60
4908;DHT22;64375;51.540;7.364;2023-12-29T07:44:15;17.60;98.50
4908;DHT22;64375;51.540;7.364;2023-12-29T07:46:43;17.70;99.00
4908;DHT22;64375;51.540;7.364;2023-12-29T07:49:12;17.70;98.80
4908;DHT22;64375;51.540;7.364;2023-12-29T07:51:40;17.70;98.70
4908;DHT22;64375;51.540;7.364;2023-12-29T07:54:13;17.70;98.90
4908;DHT22;64375;51.540;7.364;2023-12-29T07:56:44;17.70;98.80
4908;DHT22;64375;51.540;7.364;2023-12-29T07:59:12;17.60;98.90
4908;DHT22;64375;51.540;7.364;2023-12-29T08:01:43;17.60;99.10
4908;DHT22;64375;51.540;7.364;2023-12-29T08:04:17;17.70;99.20
4908;DHT22;64375;51.540;7.364;2023-12-29T08:06:51;17.70;99.40
4908;DHT22;64375;51.540;7.364;2023-12-29T08:09:21;17.60;99.20
4908;DHT22;64375;51.540;7.364;2023-12-29T08:11:49;17.60;99.10
4908;DHT22;64375;51.540;7.364;2023-12-29T08:14:17;17.60;99.20
4908;DHT22;64375;51.540;7.364;2023-12-29T08:16:45;17.60;99.10
4908;DHT22;64375;51.540;7.364;2023-12-29T08:19:13;17.60;99.10
4908;DHT22;64375;51.540;7.364;2023-12-29T08:21:42;17.60;99.10
4908;DHT22;64375;51.540;7.364;2023-12-29T08:24:10;16.80;99.80
4908;DHT22;64375;51.540;7.364;2023-12-29T08:26:44;15.90;99.30
4908;DHT22;64375;51.540;7.364;2023-12-29T08:29:16;15.40;99.90
4908;DHT22;64375;51.540;7.364;2023-12-29T08:31:45;15.90;99.90
4908;DHT22;64375;51.540;7.364;2023-12-29T08:34:16;16.60;99.90
4908;DHT22;64375;51.540;7.364;2023-12-29T08:36:52;16.90;99.90
4908;DHT22;64375;51.540;7.364;2023-12-29T08:39:30;17.10;99.70
4908;DHT22;64375;51.540;7.364;2023-12-29T08:42:03;17.20;99.80
4908;DHT22;64375;51.540;7.364;2023-12-29T08:44:31;17.30;99.80
4908;DHT22;64375;51.540;7.364;2023-12-29T08:46:59;17.40;99.90
4908;DHT22;64375;51.540;7.364;2023-12-29T08:49:27;16.50;99.00
4908;DHT22;64375;51.540;7.364;2023-12-29T08:51:55;15.80;99.90
4908;DHT22;64375;51.540;7.364;2023-12-29T08:54:23;15.30;99.90
4908;DHT22;64375;51.540;7.364;2023-12-29T08:57:01;15.20;99.90
4908;DHT22;64375;51.540;7.364;2023-12-29T08:59:36;15.10;99.90
4908;DHT22;64375;51.540;7.364;2023-12-29T09:02:06;15.10;99.90
4908;DHT22;64375;51.540;7.364;2023-12-29T09:04:34;15.90;99.90
4908;DHT22;64375;51.540;7.364;2023-12-29T09:07:02;16.30;99.10
4908;DHT22;64375;51.540;7.364;2023-12-29T09:09:31;16.10;99.40
4908;DHT22;64375;51.540;7.364;2023-12-29T09:12:01;16.60;99.70
4908;DHT22;64375;51.540;7.364;2023-12-29T09:14:29;16.90;99.60
4908;DHT22;64375;51.540;7.364;2023-12-29T09:16:59;17.10;99.70
4908;DHT22;64375;51.540;7.364;2023-12-29T09:19:27;17.20;99.80
4908;DHT22;64375;51.540;7.364;2023-12-29T09:22:05;16.10;99.90
4908;DHT22;64375;51.540;7.364;2023-12-29T09:24:33;15.30;99.90
4908;DHT22;64375;51.540;7.364;2023-12-29T09:27:03;15.60;99.90
4908;DHT22;64375;51.540;7.364;2023-12-29T09:29:31;16.00;99.90
4908;DHT22;64375;51.540;7.364;2023-12-29T09:31:59;16.30;99.90
4908;DHT22;64375;51.540;7.364;2023-12-29T09:34:27;16.60;99.90
4908;DHT22;64375;51.540;7.364;2023-12-29T09:36:58;16.70;99.90
4908;DHT22;64375;51.540;7.364;2023-12-29T09:39:26;16.80;99.90
4908;DHT22;64375;51.540;7.364;2023-12-29T09:42:03;16.90;99.90
4908;DHT22;64375;51.540;7.364;2023-12-29T09:44:31;17.00;99.90
4908;DHT22;64375;51.540;7.364;2023-12-29T09:47:03;17.00;99.90
4908;DHT22;64375;51.540;7.364;2023-12-29T09:49:36;17.00;99.90
4908;DHT22;64375;51.540;7.364;2023-12-29T09:52:05;17.00;99.90
4908;DHT22;64375;51.540;7.364;2023-12-29T09:54:35;17.00;99.90
4908;DHT22;64375;51.540;7.364;2023-12-29T09:57:05;17.00;99.90
4908;DHT22;64375;51.540;7.364;2023-12-29T09:59:35;17.00;99.90
4908;DHT22;64375;51.540;7.364;2023-12-29T10:02:14;17.10;99.90
4908;DHT22;64375;51.540;7.364;2023-12-29T10:04:42;17.10;99.90
4908;DHT22;64375;51.540;7.364;2023-12-29T10:07:18;17.10;99.90
4908;DHT22;64375;51.540;7.364;2023-12-29T10:09:52;17.10;99.90
4908;DHT22;64375;51.540;7.364;2023-12-29T10:12:23;17.10;99.90
4908;DHT22;64375;51.540;7.364;2023-12-29T10:15:05;17.00;99.90
4908;DHT22;64375;51.540;7.364;2023-12-29T10:17:43;17.00;99.90
4908;DHT22;64375;51.540;7.364;2023-12-29T10:20:21;17.00;99.90
4908;DHT22;64375;51.540;7.364;2023-12-29T10:22:57;17.10;99.90
4908;DHT22;64375;51.540;7.364;2023-12-29T10:25:28;17.20;99.90
4908;DHT22;64375;51.540;7.364;2023-12-29T10:27:58;17.10;99.90
4908;DHT22;64375;51.540;7.364;2023-12-29T10:30:26;17.00;99.90
4908;DHT22;64375;51.540;7.364;2023-12-29T10:33:01;17.10;99.90
4908;DHT22;64375;51.540;7.364;2023-12-29T10:35:31;17.10;99.90
4908;DHT22;64375;51.540;7.364;2023-12-29T10:38:17;17.10;99.90
4908;DHT22;64375;51.540;7.364;2023-12-29T10:40:44;17.10;99.90
4908;DHT22;64375;51.540;7.364;2023-12-29T10:43:21;17.10;99.90
4908;DHT22;64375;51.540;7.364;2023-12-29T10:45:51;17.00;99.90
4908;DHT22;64375;51.540;7.364;2023-12-29T10:48:33;17.10;99.90
4908;DHT22;64375;51.540;7.364;2023-12-29T10:51:01;17.10;99.90
4908;DHT22;64375;51.540;7.364;2023-12-29T10:53:31;17.10;99.90
4908;DHT22;64375;51.540;7.364;2023-12-29T10:56:02;17.10;99.90
4908;DHT22;64375;51.540;7.364;2023-12-29T10:58:32;17.00;99.90
4908;DHT22;64375;51.540;7.364;2023-12-29T11:01:14;17.00;99.90
4908;DHT22;64375;51.540;7.364;2023-12-29T11:03:57;16.50;99.90
4908;DHT22;64375;51.540;7.364;2023-12-29T11:06:26;16.60;99.90
4908;DHT22;64375;51.540;7.364;2023-12-29T11:08:55;16.70;99.90
4908;DHT22;64375;51.540;7.364;2023-12-29T11:11:26;16.80;99.90
4908;DHT22;64375;51.540;7.364;2023-12-29T11:13:56;16.80;99.90
4908;DHT22;64375;51.540;7.364;2023-12-29T11:16:24;17.00;99.90
4908;DHT22;64375;51.540;7.364;2023-12-29T11:18:55;17.00;99.90
4908;DHT22;64375;51.540;7.364;2023-12-29T11:21:26;17.00;99.90
4908;DHT22;64375;51.540;7.364;2023-12-29T11:23:57;17.00;99.90
4908;DHT22;64375;51.540;7.364;2023-12-29T11:26:26;17.00;99.90
4908;DHT22;64375;51.540;7.364;2023-12-29T11:29:02;16.40;99.90
4908;DHT22;64375;51.540;7.364;2023-12-29T11:31:34;16.50;99.90
4908;DHT22;64375;51.540;7.364;2023-12-29T11:34:06;16.60;99.90
4908;DHT22;64375;51.540;7.364;2023-12-29T11:36:46;16.70;99.90
4908;DHT22;64375;51.540;7.364;2023-12-29T11:39:33;16.90;99.90
4908;DHT22;64375;51.540;7.364;2023-12-29T11:42:10;17.00;99.90
4908;DHT22;64375;51.540;7.364;2023-12-29T11:44:43;17.00;99.90
4908;DHT22;64375;51.540;7.364;2023-12-29T11:47:36;17.00;99.90
4908;DHT22;64375;51.540;7.364;2023-12-29T11:50:14;17.00;99.90
4908;DHT22;64375;51.540;7.364;2023-12-29T11:52:51;17.00;99.90
4908;DHT22;64375;51.540;7.364;2023-12-29T11:55:21;17.00;99.90
4908;DHT22;64375;51.540;7.364;2023-12-29T11:57:58;17.00;99.90
4908;DHT22;64375;51.540;7.364;2023-12-29T12:00:44;16.90;99.90
4908;DHT22;64375;51.540;7.364;2023-12-29T12:03:19;17.00;99.90
4908;DHT22;64375;51.540;7.364;2023-12-29T12:05:51;17.00;99.90
4908;DHT22;64375;51.540;7.364;2023-12-29T12:08:29;17.00;99.90
4908;DHT22;64375;51.540;7.364;2023-12-29T12:14:05;17.10;99.90
4908;DHT22;64375;51.540;7.364;2023-12-29T12:16:50;17.10;99.90
4908;DHT22;64375;51.540;7.364;2023-12-29T12:19:20;17.00;99.90
4908;DHT22;64375;51.540;7.364;2023-12-29T12:22:02;17.00;99.90
4908;DHT22;64375;51.540;7.364;2023-12-29T12:24:34;17.00;99.90
4908;DHT22;64375;51.540;7.364;2023-12-29T12:27:16;17.00;99.90
4908;DHT22;64375;51.540;7.364;2023-12-29T12:29:45;16.90;99.90
4908;DHT22;64375;51.540;7.364;2023-12-29T12:32:17;17.00;99.90
4908;DHT22;64375;51.540;7.364;2023-12-29T12:34:45;16.80;99.90
4908;DHT22;64375;51.540;7.364;2023-12-29T12:37:18;16.80;99.90
4908;DHT22;64375;51.540;7.364;2023-12-29T12:39:46;16.90;99.90
4908;DHT22;64375;51.540;7.364;2023-12-29T12:42:20;17.00;99.90
4908;DHT22;64375;51.540;7.364;2023-12-29T12:44:54;17.00;99.90
4908;DHT22;64375;51.540;7.364;2023-12-29T12:47:35;17.10;99.90
4908;DHT22;64375;51.540;7.364;2023-12-29T12:50:05;16.90;99.90
4908;DHT22;64375;51.540;7.364;2023-12-29T12:52:33;16.90;99.90
4908;DHT22;64375;51.540;7.364;2023-12-29T12:55:03;16.90;99.90
4908;DHT22;64375;51.540;7.364;2023-12-29T12:57:35;16.80;99.90
4908;DHT22;64375;51.540;7.364;2023-12-29T13:00:04;16.90;99.90
4908;DHT22;64375;51.540;7.364;2023-12-29T13:02:35;16.90;99.90
4908;DHT22;64375;51.540;7.364;2023-12-29T13:05:04;16.90;99.90
4908;DHT22;64375;51.540;7.364;2023-12-29T13:07:43;16.90;99.90
4908;DHT22;64375;51.540;7.364;2023-12-29T13:10:17;16.90;99.90
4908;DHT22;64375;51.540;7.364;2023-12-29T13:12:52;17.00;99.90
4908;DHT22;64375;51.540;7.364;2023-12-29T13:15:21;16.90;99.90
4908;DHT22;64375;51.540;7.364;2023-12-29T13:17:55;16.90;99.90
4908;DHT22;64375;51.540;7.364;2023-12-29T13:20:28;16.80;99.90
4908;DHT22;64375;51.540;7.364;2023-12-29T13:22:58;16.80;99.90
4908;DHT22;64375;51.540;7.364;2023-12-29T13:25:27;16.80;99.90
4908;DHT22;64375;51.540;7.364;2023-12-29T13:27:55;16.70;99.90
4908;DHT22;64375;51.540;7.364;2023-12-29T13:30:28;16.80;99.90
4908;DHT22;64375;51.540;7.364;2023-12-29T13:33:09;16.90;99.90
4908;DHT22;64375;51.540;7.364;2023-12-29T13:35:45;16.90;99.90
4908;DHT22;64375;51.540;7.364;2023-12-29T13:38:27;16.20;99.90
4908;DHT22;64375;51.540;7.364;2023-12-29T13:41:05;16.10;99.90
4908;DHT22;64375;51.540;7.364;2023-12-29T13:43:37;16.30;99.90
4908;DHT22;64375;51.540;7.364;2023-12-29T13:46:10;16.50;99.90
4908;DHT22;64375;51.540;7.364;2023-12-29T13:48:47;16.70;99.90
4908;DHT22;64375;51.540;7.364;2023-12-29T13:51:22;16.80;99.90
4908;DHT22;64375;51.540;7.364;2023-12-29T13:54:05;16.90;99.90
4908;DHT22;64375;51.540;7.364;2023-12-29T13:56:55;17.00;99.90
4908;DHT22;64375;51.540;7.364;2023-12-29T13:59:35;17.00;99.90
4908;DHT22;64375;51.540;7.364;2023-12-29T14:02:15;17.10;99.90
4908;DHT22;64375;51.540;7.364;2023-12-29T14:05:14;17.10;99.90
4908;DHT22;64375;51.540;7.364;2023-12-29T14:07:53;17.20;99.90
4908;DHT22;64375;51.540;7.364;2023-12-29T14:10:29;17.20;99.90
4908;DHT22;64375;51.540;7.364;2023-12-29T14:13:04;17.30;99.90
4908;DHT22;64375;51.540;7.364;2023-12-29T14:15:37;17.30;99.90
4908;DHT22;64375;51.540;7.364;2023-12-29T14:18:27;17.30;99.90
4908;DHT22;64375;51.540;7.364;2023-12-29T14:21:24;17.30;99.90
4908;DHT22;64375;51.540;7.364;2023-12-29T14:24:13;17.30;99.90
4908;DHT22;64375;51.540;7.364;2023-12-29T14:26:53;17.20;99.90
4908;DHT22;64375;51.540;7.364;2023-12-29T14:29:29;17.30;99.90
4908;DHT22;64375;51.540;7.364;2023-12-29T14:32:21;17.30;99.90
4908;DHT22;64375;51.540;7.364;2023-12-29T14:34:52;17.20;99.90
4908;DHT22;64375;51.540;7.364;2023-12-29T14:37:24;17.20;99.90
4908;DHT22;64375;51.540;7.364;2023-12-29T14:39:52;17.10;99.90
4908;DHT22;64375;51.540;7.364;2023-12-29T14:42:21;17.20;99.90
4908;DHT22;64375;51.540;7.364;2023-12-29T14:44:49;17.20;99.90
4908;DHT22;64375;51.540;7.364;2023-12-29T14:47:17;16.80;99.90
4908;DHT22;64375;51.540;7.364;2023-12-29T14:49:48;16.30;99.90
4908;DHT22;64375;51.540;7.364;2023-12-29T14:52:19;16.50;99.90
4908;DHT22;64375;51.540;7.364;2023-12-29T14:54:49;16.70;99.90
4908;DHT22;64375;51.540;7.364;2023-12-29T14:57:17;16.90;99.90
4908;DHT22;64375;51.540;7.364;2023-12-29T14:59:50;17.00;99.90
4908;DHT22;64375;51.540;7.364;2023-12-29T15:02:27;17.00;99.90
4908;DHT22;64375;51.540;7.364;2023-12-29T15:04:55;17.10;99.90
4908;DHT22;64375;51.540;7.364;2023-12-29T15:07:26;17.20;99.90
4908;DHT22;64375;51.540;7.364;2023-12-29T15:10:04;17.20;99.90
4908;DHT22;64375;51.540;7.364;2023-12-29T15:12:41;17.20;99.90
4908;DHT22;64375;51.540;7.364;2023-12-29T15:15:10;17.20;99.90
4908;DHT22;64375;51.540;7.364;2023-12-29T15:17:44;17.20;99.90
4908;DHT22;64375;51.540;7.364;2023-12-29T15:20:24;17.20;99.90
4908;DHT22;64375;51.540;7.364;2023-12-29T15:22:58;17.10;99.90
4908;DHT22;64375;51.540;7.364;2023-12-29T15:25:31;17.10;99.90
4908;DHT22;64375;51.540;7.364;2023-12-29T15:28:00;17.00;99.90
4908;DHT22;64375;51.540;7.364;2023-12-29T15:30:28;17.10;99.90
4908;DHT22;64375;51.540;7.364;2023-12-29T15:33:02;17.10;99.90
4908;DHT22;64375;51.540;7.364;2023-12-29T15:35:36;17.10;99.90
4908;DHT22;64375;51.540;7.364;2023-12-29T15:38:07;17.10;99.90
4908;DHT22;64375;51.540;7.364;2023-12-29T15:40:39;17.10;99.90
4908;DHT22;64375;51.540;7.364;2023-12-29T15:43:07;17.10;99.90
4908;DHT22;64375;51.540;7.364;2023-12-29T15:45:47;17.20;99.90
4908;DHT22;64375;51.540;7.364;2023-12-29T15:48:21;17.20;99.90
4908;DHT22;64375;51.540;7.364;2023-12-29T15:50:57;17.10;99.90
4908;DHT22;64375;51.540;7.364;2023-12-29T15:53:28;17.20;99.90
4908;DHT22;64375;51.540;7.364;2023-12-29T15:56:03;17.20;99.90
4908;DHT22;64375;51.540;7.364;2023-12-29T15:58:38;17.20;99.90
4908;DHT22;64375;51.540;7.364;2023-12-29T16:01:06;17.20;99.90
4908;DHT22;64375;51.540;7.364;2023-12-29T16:03:34;17.20;99.90
4908;DHT22;64375;51.540;7.364;2023-12-29T16:06:02;17.20;99.90
4908;DHT22;64375;51.540;7.364;2023-12-29T16:08:32;17.00;99.90
4908;DHT22;64375;51.540;7.364;2023-12-29T16:11:02;15.80;99.90
4908;DHT22;64375;51.540;7.364;2023-12-29T16:13:30;15.80;99.90
4908;DHT22;64375;51.540;7.364;2023-12-29T16:15:58;16.10;99.90
4908;DHT22;64375;51.540;7.364;2023-12-29T16:18:34;16.50;99.90
4908;DHT22;64375;51.540;7.364;2023-12-29T16:21:08;16.60;99.90
4908;DHT22;64375;51.540;7.364;2023-12-29T16:23:42;16.80;99.90
4908;DHT22;64375;51.540;7.364;2023-12-29T16:26:28;16.90;99.90